sensor_id;sensor_type;location;lat;lon;timestamp;P1;durP1;ratioP1;P2;durP2;ratioP2
1404;SDS011;697;51.114;6.542;2024-01-25T00:01:45;39.90;;;8.83;;
1404;SDS011;697;51.114;6.542;2024-01-25T00:04:12;37.70;;;9.40;;
1404;SDS011;697;51.114;6.542;2024-01-25T00:06:39;34.77;;;9.47;;
1404;SDS011;697;51.114;6.542;2024-01-25T00:09:05;32.07;;;7.63;;
1404;SDS011;697;51.114;6.542;2024-01-25T00:11:34;36.70;;;7.10;;
1404;SDS011;697;51.114;6.542;2024-01-25T00:14:01;40.03;;;7.20;;
1404;SDS011;697;51.114;6.542;2024-01-25T00:16:28;35.07;;;7.20;;
1404;SDS011;697;51.114;6.542;2024-01-25T00:18:54;32.80;;;7.40;;
1404;SDS011;697;51.114;6.542;2024-01-25T00:21:21;35.47;;;7.30;;
1404;SDS011;697;51.114;6.542;2024-01-25T00:23:48;41.93;;;8.47;;
1404;SDS011;697;51.114;6.542;2024-01-25T00:26:15;42.63;;;7.87;;
1404;SDS011;697;51.114;6.542;2024-01-25T00:28:43;30.07;;;7.07;;
1404;SDS011;697;51.114;6.542;2024-01-25T00:31:09;31.20;;;7.50;;
1404;SDS011;697;51.114;6.542;2024-01-25T00:33:37;48.90;;;8.80;;
1404;SDS011;697;51.114;6.542;2024-01-25T00:36:04;37.97;;;9.03;;
1404;SDS011;697;51.114;6.542;2024-01-25T00:38:31;42.00;;;9.70;;
1404;SDS011;697;51.114;6.542;2024-01-25T00:40:59;41.90;;;8.17;;
1404;SDS011;697;51.114;6.542;2024-01-25T00:43:26;35.00;;;7.00;;
1404;SDS011;697;51.114;6.542;2024-01-25T00:45:55;28.53;;;6.80;;
1404;SDS011;697;51.114;6.542;2024-01-25T00:48:22;33.43;;;7.17;;
1404;SDS011;697;51.114;6.542;2024-01-25T00:50:49;28.30;;;7.80;;
1404;SDS011;697;51.114;6.542;2024-01-25T00:53:16;32.50;;;8.37;;
1404;SDS011;697;51.114;6.542;2024-01-25T00:55:43;40.80;;;7.67;;
1404;SDS011;697;51.114;6.542;2024-01-25T00:58:11;40.03;;;7.00;;
1404;SDS011;697;51.114;6.542;2024-01-25T01:00:38;32.33;;;7.57;;
1404;SDS011;697;51.114;6.542;2024-01-25T01:03:07;42.87;;;8.90;;
1404;SDS011;697;51.114;6.542;2024-01-25T01:05:34;40.83;;;8.60;;
1404;SDS011;697;51.114;6.542;2024-01-25T01:08:02;31.40;;;7.00;;
1404;SDS011;697;51.114;6.542;2024-01-25T01:10:29;46.67;;;10.00;;
1404;SDS011;697;51.114;6.542;2024-01-25T01:12:55;45.40;;;10.57;;
1404;SDS011;697;51.114;6.542;2024-01-25T01:15:22;34.37;;;7.53;;
1404;SDS011;697;51.114;6.542;2024-01-25T01:17:49;38.80;;;7.47;;
1404;SDS011;697;51.114;6.542;2024-01-25T01:20:17;37.30;;;8.10;;
1404;SDS011;697;51.114;6.542;2024-01-25T01:22:44;44.97;;;8.50;;
1404;SDS011;697;51.114;6.542;2024-01-25T01:25:10;46.33;;;7.70;;
1404;SDS011;697;51.114;6.542;2024-01-25T01:27:37;40.33;;;8.27;;
1404;SDS011;697;51.114;6.542;2024-01-25T01:30:04;38.13;;;7.70;;
1404;SDS011;697;51.114;6.542;2024-01-25T01:32:33;41.73;;;8.20;;
1404;SDS011;697;51.114;6.542;2024-01-25T01:34:59;32.23;;;7.53;;
1404;SDS011;697;51.114;6.542;2024-01-25T01:37:27;43.20;;;7.80;;
1404;SDS011;697;51.114;6.542;2024-01-25T01:39:54;33.27;;;6.80;;
1404;SDS011;697;51.114;6.542;2024-01-25T01:42:23;42.80;;;7.30;;
1404;SDS011;697;51.114;6.542;2024-01-25T01:44:50;35.43;;;6.93;;
1404;SDS011;697;51.114;6.542;2024-01-25T01:47:18;37.67;;;7.83;;
1404;SDS011;697;51.114;6.542;2024-01-25T01:49:45;36.20;;;7.43;;
1404;SDS011;697;51.114;6.542;2024-01-25T01:52:13;33.10;;;8.07;;
1404;SDS011;697;51.114;6.542;2024-01-25T01:54:41;33.40;;;7.70;;
1404;SDS011;697;51.114;6.542;2024-01-25T01:57:08;36.17;;;7.10;;
1404;SDS011;697;51.114;6.542;2024-01-25T01:59:35;29.37;;;7.77;;
1404;SDS011;697;51.114;6.542;2024-01-25T02:02:02;34.87;;;6.93;;
1404;SDS011;697;51.114;6.542;2024-01-25T02:04:28;42.50;;;8.03;;
1404;SDS011;697;51.114;6.542;2024-01-25T02:06:55;36.17;;;8.33;;
1404;SDS011;697;51.114;6.542;2024-01-25T02:09:22;47.23;;;9.27;;
1404;SDS011;697;51.114;6.542;2024-01-25T02:11:59;60.90;;;9.57;;
1404;SDS011;697;51.114;6.542;2024-01-25T02:14:27;40.97;;;7.93;;
1404;SDS011;697;51.114;6.542;2024-01-25T02:16:53;41.40;;;9.73;;
1404;SDS011;697;51.114;6.542;2024-01-25T02:19:20;40.47;;;8.10;;
1404;SDS011;697;51.114;6.542;2024-01-25T02:21:47;42.63;;;7.57;;
1404;SDS011;697;51.114;6.542;2024-01-25T02:24:17;34.53;;;7.40;;
1404;SDS011;697;51.114;6.542;2024-01-25T02:26:43;35.83;;;9.30;;
1404;SDS011;697;51.114;6.542;2024-01-25T02:29:10;31.07;;;7.87;;
1404;SDS011;697;51.114;6.542;2024-01-25T02:31:37;40.23;;;8.13;;
1404;SDS011;697;51.114;6.542;2024-01-25T02:34:04;38.33;;;8.87;;
1404;SDS011;697;51.114;6.542;2024-01-25T02:36:30;41.03;;;7.73;;
1404;SDS011;697;51.114;6.542;2024-01-25T02:38:57;39.70;;;8.63;;
1404;SDS011;697;51.114;6.542;2024-01-25T02:41:25;29.33;;;7.03;;
1404;SDS011;697;51.114;6.542;2024-01-25T02:43:55;43.67;;;8.40;;
1404;SDS011;697;51.114;6.542;2024-01-25T02:46:22;43.57;;;8.70;;
1404;SDS011;697;51.114;6.542;2024-01-25T02:48:49;43.27;;;6.90;;
1404;SDS011;697;51.114;6.542;2024-01-25T02:51:15;45.50;;;7.50;;
1404;SDS011;697;51.114;6.542;2024-01-25T02:53:43;41.47;;;7.70;;
1404;SDS011;697;51.114;6.542;2024-01-25T02:56:10;49.70;;;9.27;;
1404;SDS011;697;51.114;6.542;2024-01-25T02:58:38;38.40;;;8.27;;
1404;SDS011;697;51.114;6.542;2024-01-25T03:01:05;26.40;;;7.47;;
1404;SDS011;697;51.114;6.542;2024-01-25T03:03:31;40.10;;;8.40;;
1404;SDS011;697;51.114;6.542;2024-01-25T03:05:58;39.63;;;7.10;;
1404;SDS011;697;51.114;6.542;2024-01-25T03:08:25;34.70;;;8.20;;
1404;SDS011;697;51.114;6.542;2024-01-25T03:10:52;33.23;;;9.53;;
1404;SDS011;697;51.114;6.542;2024-01-25T03:13:19;54.30;;;8.63;;
1404;SDS011;697;51.114;6.542;2024-01-25T03:15:47;41.13;;;7.53;;
1404;SDS011;697;51.114;6.542;2024-01-25T03:18:14;41.37;;;8.27;;
1404;SDS011;697;51.114;6.542;2024-01-25T03:20:41;41.60;;;9.00;;
1404;SDS011;697;51.114;6.542;2024-01-25T03:23:07;39.30;;;8.57;;
1404;SDS011;697;51.114;6.542;2024-01-25T03:25:34;39.43;;;8.80;;
1404;SDS011;697;51.114;6.542;2024-01-25T03:28:01;41.30;;;8.27;;
1404;SDS011;697;51.114;6.542;2024-01-25T03:30:27;33.30;;;6.90;;
1404;SDS011;697;51.114;6.542;2024-01-25T03:32:55;46.43;;;8.83;;
1404;SDS011;697;51.114;6.542;2024-01-25T03:35:22;36.47;;;7.17;;
1404;SDS011;697;51.114;6.542;2024-01-25T03:37:49;48.63;;;10.23;;
1404;SDS011;697;51.114;6.542;2024-01-25T03:40:16;42.77;;;7.40;;
1404;SDS011;697;51.114;6.542;2024-01-25T03:42:42;37.37;;;8.10;;
1404;SDS011;697;51.114;6.542;2024-01-25T03:45:09;49.83;;;9.07;;
1404;SDS011;697;51.114;6.542;2024-01-25T03:47:36;44.03;;;7.63;;
1404;SDS011;697;51.114;6.542;2024-01-25T03:50:04;36.23;;;9.23;;
1404;SDS011;697;51.114;6.542;2024-01-25T03:52:31;35.80;;;6.67;;
1404;SDS011;697;51.114;6.542;2024-01-25T03:54:58;39.27;;;9.53;;
1404;SDS011;697;51.114;6.542;2024-01-25T03:57:24;44.73;;;8.33;;
1404;SDS011;697;51.114;6.542;2024-01-25T03:59:51;33.97;;;7.90;;
1404;SDS011;697;51.114;6.542;2024-01-25T04:02:18;42.60;;;10.07;;
1404;SDS011;697;51.114;6.542;2024-01-25T04:04:44;40.00;;;9.43;;
1404;SDS011;697;51.114;6.542;2024-01-25T04:07:12;53.87;;;8.40;;
1404;SDS011;697;51.114;6.542;2024-01-25T04:09:39;42.50;;;9.27;;
1404;SDS011;697;51.114;6.542;2024-01-25T04:12:06;32.40;;;7.60;;
1404;SDS011;697;51.114;6.542;2024-01-25T04:14:33;41.63;;;8.23;;
1404;SDS011;697;51.114;6.542;2024-01-25T04:16:59;39.37;;;8.50;;
1404;SDS011;697;51.114;6.542;2024-01-25T04:19:26;40.67;;;7.60;;
1404;SDS011;697;51.114;6.542;2024-01-25T04:21:53;41.00;;;7.63;;
1404;SDS011;697;51.114;6.542;2024-01-25T04:24:21;35.67;;;7.30;;
1404;SDS011;697;51.114;6.542;2024-01-25T04:26:50;50.93;;;9.37;;
1404;SDS011;697;51.114;6.542;2024-01-25T04:29:17;43.00;;;6.93;;
1404;SDS011;697;51.114;6.542;2024-01-25T04:31:44;35.57;;;7.43;;
1404;SDS011;697;51.114;6.542;2024-01-25T04:34:13;41.77;;;7.47;;
1404;SDS011;697;51.114;6.542;2024-01-25T04:36:40;46.00;;;8.23;;
1404;SDS011;697;51.114;6.542;2024-01-25T04:39:06;32.87;;;7.77;;
1404;SDS011;697;51.114;6.542;2024-01-25T04:41:35;55.17;;;8.87;;
1404;SDS011;697;51.114;6.542;2024-01-25T04:44:02;36.70;;;7.30;;
1404;SDS011;697;51.114;6.542;2024-01-25T04:46:29;38.80;;;9.63;;
1404;SDS011;697;51.114;6.542;2024-01-25T04:49:00;32.33;;;7.70;;
1404;SDS011;697;51.114;6.542;2024-01-25T04:51:27;42.13;;;8.37;;
1404;SDS011;697;51.114;6.542;2024-01-25T04:53:54;39.20;;;8.03;;
1404;SDS011;697;51.114;6.542;2024-01-25T04:56:21;44.67;;;9.60;;
1404;SDS011;697;51.114;6.542;2024-01-25T04:58:49;37.97;;;8.00;;
1404;SDS011;697;51.114;6.542;2024-01-25T05:01:16;40.27;;;8.20;;
1404;SDS011;697;51.114;6.542;2024-01-25T05:03:43;39.60;;;7.40;;
1404;SDS011;697;51.114;6.542;2024-01-25T05:06:09;37.47;;;7.60;;
1404;SDS011;697;51.114;6.542;2024-01-25T05:08:36;30.17;;;7.13;;
1404;SDS011;697;51.114;6.542;2024-01-25T05:11:03;46.00;;;7.67;;
1404;SDS011;697;51.114;6.542;2024-01-25T05:13:30;28.73;;;8.10;;
1404;SDS011;697;51.114;6.542;2024-01-25T05:15:58;38.87;;;7.70;;
1404;SDS011;697;51.114;6.542;2024-01-25T05:18:24;38.77;;;9.07;;
1404;SDS011;697;51.114;6.542;2024-01-25T05:20:51;39.30;;;7.30;;
1404;SDS011;697;51.114;6.542;2024-01-25T05:23:18;29.83;;;7.20;;
1404;SDS011;697;51.114;6.542;2024-01-25T05:25:45;45.40;;;7.33;;
1404;SDS011;697;51.114;6.542;2024-01-25T05:28:12;34.17;;;7.80;;
1404;SDS011;697;51.114;6.542;2024-01-25T05:30:38;30.57;;;8.60;;
1404;SDS011;697;51.114;6.542;2024-01-25T05:33:06;43.47;;;8.10;;
1404;SDS011;697;51.114;6.542;2024-01-25T05:35:33;32.93;;;7.80;;
1404;SDS011;697;51.114;6.542;2024-01-25T05:38:00;39.50;;;7.87;;
1404;SDS011;697;51.114;6.542;2024-01-25T05:40:27;39.83;;;7.63;;
1404;SDS011;697;51.114;6.542;2024-01-25T05:42:53;40.40;;;8.50;;
1404;SDS011;697;51.114;6.542;2024-01-25T05:45:20;30.83;;;6.93;;
1404;SDS011;697;51.114;6.542;2024-01-25T05:47:48;35.47;;;7.30;;
1404;SDS011;697;51.114;6.542;2024-01-25T05:50:16;42.33;;;9.10;;
1404;SDS011;697;51.114;6.542;2024-01-25T05:52:43;36.57;;;8.60;;
1404;SDS011;697;51.114;6.542;2024-01-25T05:55:10;28.70;;;7.27;;
1404;SDS011;697;51.114;6.542;2024-01-25T05:57:39;41.07;;;8.23;;
1404;SDS011;697;51.114;6.542;2024-01-25T06:00:06;47.10;;;8.33;;
1404;SDS011;697;51.114;6.542;2024-01-25T06:02:33;34.63;;;8.17;;
1404;SDS011;697;51.114;6.542;2024-01-25T06:05:00;41.43;;;8.60;;
1404;SDS011;697;51.114;6.542;2024-01-25T06:07:28;35.50;;;9.00;;
1404;SDS011;697;51.114;6.542;2024-01-25T06:09:54;31.17;;;7.27;;
1404;SDS011;697;51.114;6.542;2024-01-25T06:12:21;41.40;;;9.30;;
1404;SDS011;697;51.114;6.542;2024-01-25T06:14:48;23.10;;;6.50;;
1404;SDS011;697;51.114;6.542;2024-01-25T06:17:17;42.73;;;7.63;;
1404;SDS011;697;51.114;6.542;2024-01-25T06:19:43;38.70;;;7.77;;
1404;SDS011;697;51.114;6.542;2024-01-25T06:22:10;37.60;;;8.50;;
1404;SDS011;697;51.114;6.542;2024-01-25T06:24:39;37.07;;;7.27;;
1404;SDS011;697;51.114;6.542;2024-01-25T06:27:05;35.17;;;8.17;;
1404;SDS011;697;51.114;6.542;2024-01-25T06:29:32;32.33;;;8.10;;
1404;SDS011;697;51.114;6.542;2024-01-25T06:31:59;33.90;;;8.07;;
1404;SDS011;697;51.114;6.542;2024-01-25T06:34:25;40.33;;;7.47;;
1404;SDS011;697;51.114;6.542;2024-01-25T06:36:52;43.70;;;8.10;;
1404;SDS011;697;51.114;6.542;2024-01-25T06:39:19;41.10;;;7.57;;
1404;SDS011;697;51.114;6.542;2024-01-25T06:41:47;52.87;;;8.17;;
1404;SDS011;697;51.114;6.542;2024-01-25T06:44:13;35.33;;;8.07;;
1404;SDS011;697;51.114;6.542;2024-01-25T06:46:40;30.57;;;8.27;;
1404;SDS011;697;51.114;6.542;2024-01-25T06:49:10;32.40;;;7.00;;
1404;SDS011;697;51.114;6.542;2024-01-25T06:51:37;34.00;;;8.47;;
1404;SDS011;697;51.114;6.542;2024-01-25T06:54:03;38.07;;;10.20;;
1404;SDS011;697;51.114;6.542;2024-01-25T06:56:30;38.57;;;9.10;;
1404;SDS011;697;51.114;6.542;2024-01-25T06:58:59;38.67;;;9.40;;
1404;SDS011;697;51.114;6.542;2024-01-25T07:01:26;31.83;;;7.87;;
1404;SDS011;697;51.114;6.542;2024-01-25T07:03:55;37.20;;;7.47;;
1404;SDS011;697;51.114;6.542;2024-01-25T07:06:22;46.30;;;9.10;;
1404;SDS011;697;51.114;6.542;2024-01-25T07:08:48;47.13;;;9.60;;
1404;SDS011;697;51.114;6.542;2024-01-25T07:11:15;38.87;;;8.43;;
1404;SDS011;697;51.114;6.542;2024-01-25T07:13:42;48.83;;;8.50;;
1404;SDS011;697;51.114;6.542;2024-01-25T07:16:09;53.70;;;10.87;;
1404;SDS011;697;51.114;6.542;2024-01-25T07:18:36;41.20;;;9.20;;
1404;SDS011;697;51.114;6.542;2024-01-25T07:21:03;41.77;;;8.10;;
1404;SDS011;697;51.114;6.542;2024-01-25T07:23:30;52.90;;;10.07;;
1404;SDS011;697;51.114;6.542;2024-01-25T07:25:56;37.53;;;9.33;;
1404;SDS011;697;51.114;6.542;2024-01-25T07:28:23;36.20;;;9.40;;
1404;SDS011;697;51.114;6.542;2024-01-25T07:30:50;46.50;;;10.83;;
1404;SDS011;697;51.114;6.542;2024-01-25T07:33:18;55.97;;;12.80;;
1404;SDS011;697;51.114;6.542;2024-01-25T07:35:45;53.73;;;13.07;;
1404;SDS011;697;51.114;6.542;2024-01-25T07:38:13;49.90;;;14.00;;
1404;SDS011;697;51.114;6.542;2024-01-25T07:40:40;47.07;;;12.10;;
1404;SDS011;697;51.114;6.542;2024-01-25T07:43:06;55.70;;;14.17;;
1404;SDS011;697;51.114;6.542;2024-01-25T07:45:33;52.33;;;12.60;;
1404;SDS011;697;51.114;6.542;2024-01-25T07:48:00;46.20;;;13.50;;
1404;SDS011;697;51.114;6.542;2024-01-25T07:50:28;47.93;;;13.93;;
1404;SDS011;697;51.114;6.542;2024-01-25T07:52:54;47.00;;;11.93;;
1404;SDS011;697;51.114;6.542;2024-01-25T07:55:20;51.30;;;11.93;;
1404;SDS011;697;51.114;6.542;2024-01-25T07:57:47;38.30;;;12.07;;
1404;SDS011;697;51.114;6.542;2024-01-25T08:00:14;41.33;;;10.73;;
1404;SDS011;697;51.114;6.542;2024-01-25T08:02:42;38.87;;;11.13;;
1404;SDS011;697;51.114;6.542;2024-01-25T08:05:10;47.83;;;11.47;;
1404;SDS011;697;51.114;6.542;2024-01-25T08:07:38;45.10;;;12.53;;
1404;SDS011;697;51.114;6.542;2024-01-25T08:10:05;44.13;;;10.07;;
1404;SDS011;697;51.114;6.542;2024-01-25T08:12:33;36.53;;;10.40;;
1404;SDS011;697;51.114;6.542;2024-01-25T08:15:00;44.63;;;11.13;;
1404;SDS011;697;51.114;6.542;2024-01-25T08:17:27;38.53;;;10.13;;
1404;SDS011;697;51.114;6.542;2024-01-25T08:19:53;37.67;;;10.33;;
1404;SDS011;697;51.114;6.542;2024-01-25T08:22:20;45.07;;;11.50;;
1404;SDS011;697;51.114;6.542;2024-01-25T08:24:49;42.57;;;10.77;;
1404;SDS011;697;51.114;6.542;2024-01-25T08:27:16;38.33;;;10.67;;
1404;SDS011;697;51.114;6.542;2024-01-25T08:29:42;48.57;;;10.37;;
1404;SDS011;697;51.114;6.542;2024-01-25T08:32:09;44.23;;;10.23;;
1404;SDS011;697;51.114;6.542;2024-01-25T08:34:36;43.53;;;9.57;;
1404;SDS011;697;51.114;6.542;2024-01-25T08:37:03;45.20;;;11.77;;
1404;SDS011;697;51.114;6.542;2024-01-25T08:39:29;36.03;;;11.83;;
1404;SDS011;697;51.114;6.542;2024-01-25T08:41:57;45.53;;;11.10;;
1404;SDS011;697;51.114;6.542;2024-01-25T08:44:27;39.80;;;11.00;;
1404;SDS011;697;51.114;6.542;2024-01-25T08:46:54;41.13;;;10.53;;
1404;SDS011;697;51.114;6.542;2024-01-25T08:49:21;42.93;;;12.67;;
1404;SDS011;697;51.114;6.542;2024-01-25T08:51:47;39.03;;;10.10;;
1404;SDS011;697;51.114;6.542;2024-01-25T08:54:14;50.90;;;11.70;;
1404;SDS011;697;51.114;6.542;2024-01-25T08:56:41;50.57;;;12.20;;
1404;SDS011;697;51.114;6.542;2024-01-25T08:59:09;47.20;;;13.83;;
1404;SDS011;697;51.114;6.542;2024-01-25T09:01:35;36.67;;;11.93;;
1404;SDS011;697;51.114;6.542;2024-01-25T09:04:02;45.00;;;12.90;;
1404;SDS011;697;51.114;6.542;2024-01-25T09:06:29;50.23;;;12.97;;
1404;SDS011;697;51.114;6.542;2024-01-25T09:08:56;43.37;;;12.17;;
1404;SDS011;697;51.114;6.542;2024-01-25T09:11:22;40.63;;;11.00;;
1404;SDS011;697;51.114;6.542;2024-01-25T09:13:49;49.70;;;11.33;;
1404;SDS011;697;51.114;6.542;2024-01-25T09:16:17;49.77;;;12.17;;
1404;SDS011;697;51.114;6.542;2024-01-25T09:18:45;43.63;;;11.33;;
1404;SDS011;697;51.114;6.542;2024-01-25T09:21:11;52.80;;;12.53;;
1404;SDS011;697;51.114;6.542;2024-01-25T09:23:39;39.50;;;10.50;;
1404;SDS011;697;51.114;6.542;2024-01-25T09:26:05;34.53;;;9.60;;
1404;SDS011;697;51.114;6.542;2024-01-25T09:28:32;33.33;;;10.23;;
1404;SDS011;697;51.114;6.542;2024-01-25T09:30:59;40.03;;;9.33;;
1404;SDS011;697;51.114;6.542;2024-01-25T09:33:26;48.00;;;10.97;;
1404;SDS011;697;51.114;6.542;2024-01-25T09:35:55;35.93;;;9.20;;
1404;SDS011;697;51.114;6.542;2024-01-25T09:38:21;31.50;;;9.57;;
1404;SDS011;697;51.114;6.542;2024-01-25T09:40:48;40.73;;;10.00;;
1404;SDS011;697;51.114;6.542;2024-01-25T09:43:16;43.03;;;10.77;;
1404;SDS011;697;51.114;6.542;2024-01-25T09:45:45;35.03;;;9.70;;
1404;SDS011;697;51.114;6.542;2024-01-25T09:48:14;38.60;;;10.07;;
1404;SDS011;697;51.114;6.542;2024-01-25T09:50:43;32.67;;;7.93;;
1404;SDS011;697;51.114;6.542;2024-01-25T09:53:12;42.13;;;9.20;;
1404;SDS011;697;51.114;6.542;2024-01-25T09:55:46;37.50;;;9.13;;
1404;SDS011;697;51.114;6.542;2024-01-25T09:58:21;44.03;;;10.47;;
1404;SDS011;697;51.114;6.542;2024-01-25T10:00:48;35.20;;;9.90;;
1404;SDS011;697;51.114;6.542;2024-01-25T10:03:15;38.27;;;12.43;;
1404;SDS011;697;51.114;6.542;2024-01-25T10:05:41;33.20;;;9.53;;
1404;SDS011;697;51.114;6.542;2024-01-25T10:08:12;44.27;;;12.17;;
1404;SDS011;697;51.114;6.542;2024-01-25T10:10:39;27.63;;;10.00;;
1404;SDS011;697;51.114;6.542;2024-01-25T10:13:06;31.30;;;10.20;;
1404;SDS011;697;51.114;6.542;2024-01-25T10:15:38;38.20;;;10.03;;
1404;SDS011;697;51.114;6.542;2024-01-25T10:18:06;54.03;;;11.83;;
1404;SDS011;697;51.114;6.542;2024-01-25T10:20:38;39.67;;;12.47;;
1404;SDS011;697;51.114;6.542;2024-01-25T10:23:06;37.50;;;13.40;;
1404;SDS011;697;51.114;6.542;2024-01-25T10:25:33;37.83;;;15.77;;
1404;SDS011;697;51.114;6.542;2024-01-25T10:28:00;48.63;;;16.43;;
1404;SDS011;697;51.114;6.542;2024-01-25T10:30:28;55.00;;;18.10;;
1404;SDS011;697;51.114;6.542;2024-01-25T10:32:58;47.03;;;17.67;;
1404;SDS011;697;51.114;6.542;2024-01-25T10:35:25;48.13;;;18.50;;
1404;SDS011;697;51.114;6.542;2024-01-25T10:37:52;51.43;;;19.60;;
1404;SDS011;697;51.114;6.542;2024-01-25T10:40:20;52.77;;;19.70;;
1404;SDS011;697;51.114;6.542;2024-01-25T10:42:48;51.73;;;20.30;;
1404;SDS011;697;51.114;6.542;2024-01-25T10:45:15;55.23;;;19.33;;
1404;SDS011;697;51.114;6.542;2024-01-25T10:47:42;49.70;;;20.37;;
1404;SDS011;697;51.114;6.542;2024-01-25T10:50:09;44.77;;;19.97;;
1404;SDS011;697;51.114;6.542;2024-01-25T10:52:39;60.83;;;21.07;;
1404;SDS011;697;51.114;6.542;2024-01-25T10:55:06;56.17;;;20.70;;
1404;SDS011;697;51.114;6.542;2024-01-25T10:57:36;57.03;;;20.60;;
1404;SDS011;697;51.114;6.542;2024-01-25T11:00:05;55.47;;;20.87;;
1404;SDS011;697;51.114;6.542;2024-01-25T11:02:34;43.30;;;19.90;;
1404;SDS011;697;51.114;6.542;2024-01-25T11:05:01;54.43;;;20.53;;
1404;SDS011;697;51.114;6.542;2024-01-25T11:07:28;53.57;;;21.00;;
1404;SDS011;697;51.114;6.542;2024-01-25T11:09:55;53.30;;;20.00;;
1404;SDS011;697;51.114;6.542;2024-01-25T11:12:22;53.00;;;22.83;;
1404;SDS011;697;51.114;6.542;2024-01-25T11:14:54;51.63;;;20.83;;
1404;SDS011;697;51.114;6.542;2024-01-25T11:17:21;43.10;;;18.63;;
1404;SDS011;697;51.114;6.542;2024-01-25T11:19:49;46.93;;;19.70;;
1404;SDS011;697;51.114;6.542;2024-01-25T11:22:16;49.87;;;19.60;;
1404;SDS011;697;51.114;6.542;2024-01-25T11:24:43;45.93;;;19.77;;
1404;SDS011;697;51.114;6.542;2024-01-25T11:27:10;43.87;;;18.10;;
1404;SDS011;697;51.114;6.542;2024-01-25T11:29:38;50.10;;;18.60;;
1404;SDS011;697;51.114;6.542;2024-01-25T11:32:07;37.77;;;16.70;;
1404;SDS011;697;51.114;6.542;2024-01-25T11:34:35;39.47;;;18.20;;
1404;SDS011;697;51.114;6.542;2024-01-25T11:37:02;37.60;;;16.40;;
1404;SDS011;697;51.114;6.542;2024-01-25T11:39:28;41.13;;;16.27;;
1404;SDS011;697;51.114;6.542;2024-01-25T11:41:55;32.47;;;17.30;;
1404;SDS011;697;51.114;6.542;2024-01-25T11:44:22;50.37;;;16.53;;
1404;SDS011;697;51.114;6.542;2024-01-25T11:46:49;43.47;;;16.47;;
1404;SDS011;697;51.114;6.542;2024-01-25T11:49:18;37.17;;;14.80;;
1404;SDS011;697;51.114;6.542;2024-01-25T11:51:44;31.70;;;14.83;;
1404;SDS011;697;51.114;6.542;2024-01-25T11:54:11;46.07;;;15.80;;
1404;SDS011;697;51.114;6.542;2024-01-25T11:56:38;39.30;;;16.10;;
1404;SDS011;697;51.114;6.542;2024-01-25T11:59:06;36.77;;;15.30;;
1404;SDS011;697;51.114;6.542;2024-01-25T12:01:34;44.90;;;16.70;;
1404;SDS011;697;51.114;6.542;2024-01-25T12:04:01;37.60;;;15.97;;
1404;SDS011;697;51.114;6.542;2024-01-25T12:06:29;41.73;;;16.27;;
1404;SDS011;697;51.114;6.542;2024-01-25T12:09:05;36.53;;;15.77;;
1404;SDS011;697;51.114;6.542;2024-01-25T12:11:33;44.30;;;16.30;;
1404;SDS011;697;51.114;6.542;2024-01-25T12:14:00;39.50;;;16.00;;
1404;SDS011;697;51.114;6.542;2024-01-25T12:16:26;35.83;;;16.27;;
1404;SDS011;697;51.114;6.542;2024-01-25T12:18:53;38.17;;;17.10;;
1404;SDS011;697;51.114;6.542;2024-01-25T12:21:20;39.53;;;14.77;;
1404;SDS011;697;51.114;6.542;2024-01-25T12:23:48;40.70;;;16.37;;
1404;SDS011;697;51.114;6.542;2024-01-25T12:26:14;34.37;;;15.20;;
1404;SDS011;697;51.114;6.542;2024-01-25T12:28:42;33.43;;;14.83;;
1404;SDS011;697;51.114;6.542;2024-01-25T12:31:09;36.83;;;15.30;;
1404;SDS011;697;51.114;6.542;2024-01-25T12:33:36;36.00;;;15.80;;
1404;SDS011;697;51.114;6.542;2024-01-25T12:36:02;38.43;;;13.30;;
1404;SDS011;697;51.114;6.542;2024-01-25T12:38:29;31.27;;;14.43;;
1404;SDS011;697;51.114;6.542;2024-01-25T12:41:01;36.80;;;14.00;;
1404;SDS011;697;51.114;6.542;2024-01-25T12:43:28;31.30;;;12.70;;
1404;SDS011;697;51.114;6.542;2024-01-25T12:45:55;35.37;;;13.80;;
1404;SDS011;697;51.114;6.542;2024-01-25T12:48:22;42.33;;;14.00;;
1404;SDS011;697;51.114;6.542;2024-01-25T12:50:48;33.80;;;13.80;;
1404;SDS011;697;51.114;6.542;2024-01-25T12:53:15;33.40;;;12.53;;
1404;SDS011;697;51.114;6.542;2024-01-25T12:55:42;26.57;;;10.30;;
1404;SDS011;697;51.114;6.542;2024-01-25T12:58:10;33.53;;;12.50;;
1404;SDS011;697;51.114;6.542;2024-01-25T13:00:37;28.53;;;10.80;;
1404;SDS011;697;51.114;6.542;2024-01-25T13:03:04;29.93;;;11.13;;
1404;SDS011;697;51.114;6.542;2024-01-25T13:05:31;30.53;;;11.33;;
1404;SDS011;697;51.114;6.542;2024-01-25T13:07:59;30.63;;;10.67;;
1404;SDS011;697;51.114;6.542;2024-01-25T13:10:26;28.67;;;9.70;;
1404;SDS011;697;51.114;6.542;2024-01-25T13:12:53;25.33;;;10.47;;
1404;SDS011;697;51.114;6.542;2024-01-25T13:15:21;34.63;;;10.50;;
1404;SDS011;697;51.114;6.542;2024-01-25T13:17:48;29.00;;;9.40;;
1404;SDS011;697;51.114;6.542;2024-01-25T13:20:15;26.43;;;9.67;;
1404;SDS011;697;51.114;6.542;2024-01-25T13:22:42;32.80;;;9.77;;
1404;SDS011;697;51.114;6.542;2024-01-25T13:25:08;38.70;;;11.27;;
1404;SDS011;697;51.114;6.542;2024-01-25T13:27:37;40.97;;;10.10;;
1404;SDS011;697;51.114;6.542;2024-01-25T13:30:04;32.30;;;9.93;;
1404;SDS011;697;51.114;6.542;2024-01-25T13:32:33;26.60;;;11.00;;
1404;SDS011;697;51.114;6.542;2024-01-25T13:34:59;29.53;;;8.60;;
1404;SDS011;697;51.114;6.542;2024-01-25T13:37:26;26.20;;;9.77;;
1404;SDS011;697;51.114;6.542;2024-01-25T13:39:53;30.37;;;9.70;;
1404;SDS011;697;51.114;6.542;2024-01-25T13:42:19;27.90;;;8.70;;
1404;SDS011;697;51.114;6.542;2024-01-25T13:44:46;29.57;;;8.20;;
1404;SDS011;697;51.114;6.542;2024-01-25T13:47:13;32.77;;;9.30;;
1404;SDS011;697;51.114;6.542;2024-01-25T13:49:41;24.03;;;7.90;;
1404;SDS011;697;51.114;6.542;2024-01-25T13:52:07;45.43;;;10.47;;
1404;SDS011;697;51.114;6.542;2024-01-25T13:54:43;25.40;;;8.70;;
1404;SDS011;697;51.114;6.542;2024-01-25T13:57:10;30.67;;;8.40;;
1404;SDS011;697;51.114;6.542;2024-01-25T13:59:36;33.80;;;8.73;;
1404;SDS011;697;51.114;6.542;2024-01-25T14:02:03;37.47;;;8.27;;
1404;SDS011;697;51.114;6.542;2024-01-25T14:04:30;22.30;;;8.07;;
1404;SDS011;697;51.114;6.542;2024-01-25T14:06:58;32.90;;;9.00;;
1404;SDS011;697;51.114;6.542;2024-01-25T14:09:27;28.90;;;7.47;;
1404;SDS011;697;51.114;6.542;2024-01-25T14:11:55;32.93;;;9.10;;
1404;SDS011;697;51.114;6.542;2024-01-25T14:14:22;30.07;;;8.03;;
1404;SDS011;697;51.114;6.542;2024-01-25T14:16:48;33.87;;;8.97;;
1404;SDS011;697;51.114;6.542;2024-01-25T14:19:15;20.10;;;6.93;;
1404;SDS011;697;51.114;6.542;2024-01-25T14:21:42;23.73;;;7.53;;
1404;SDS011;697;51.114;6.542;2024-01-25T14:24:10;32.10;;;8.73;;
1404;SDS011;697;51.114;6.542;2024-01-25T14:26:37;27.47;;;7.83;;
1404;SDS011;697;51.114;6.542;2024-01-25T14:29:04;32.30;;;8.30;;
1404;SDS011;697;51.114;6.542;2024-01-25T14:31:30;31.10;;;7.20;;
1404;SDS011;697;51.114;6.542;2024-01-25T14:33:57;28.23;;;7.40;;
1404;SDS011;697;51.114;6.542;2024-01-25T14:36:24;25.87;;;6.60;;
1404;SDS011;697;51.114;6.542;2024-01-25T14:38:50;26.80;;;7.87;;
1404;SDS011;697;51.114;6.542;2024-01-25T14:41:18;33.67;;;7.97;;
1404;SDS011;697;51.114;6.542;2024-01-25T14:43:45;24.43;;;7.47;;
1404;SDS011;697;51.114;6.542;2024-01-25T14:46:11;35.20;;;7.17;;
1404;SDS011;697;51.114;6.542;2024-01-25T14:48:38;26.50;;;7.73;;
1404;SDS011;697;51.114;6.542;2024-01-25T14:51:05;33.60;;;10.27;;
1404;SDS011;697;51.114;6.542;2024-01-25T14:53:32;28.27;;;8.30;;
1404;SDS011;697;51.114;6.542;2024-01-25T14:55:59;28.20;;;7.27;;
1404;SDS011;697;51.114;6.542;2024-01-25T14:58:27;20.07;;;7.43;;
1404;SDS011;697;51.114;6.542;2024-01-25T15:00:54;26.80;;;7.87;;
1404;SDS011;697;51.114;6.542;2024-01-25T15:03:21;22.93;;;7.30;;
1404;SDS011;697;51.114;6.542;2024-01-25T15:05:47;34.60;;;7.00;;
1404;SDS011;697;51.114;6.542;2024-01-25T15:08:14;42.13;;;6.97;;
1404;SDS011;697;51.114;6.542;2024-01-25T15:10:41;27.23;;;7.03;;